地図

経路データ

SID SEASON NUMBER BASIN SUBBASIN NAME ISO_TIME NATURE LAT LON WMO_WIND WMO_PRES WMO_AGENCY TRACK_TYPE DIST2LAND LANDFALL IFLAG USA_AGENCY USA_ATCF_ID USA_LAT USA_LON USA_RECORD USA_STATUS USA_WIND USA_PRES USA_SSHS USA_R34_NE USA_R34_SE USA_R34_SW USA_R34_NW USA_R50_NE USA_R50_SE USA_R50_SW USA_R50_NW USA_R64_NE USA_R64_SE USA_R64_SW USA_R64_NW USA_POCI USA_ROCI USA_RMW USA_EYE TOKYO_LAT TOKYO_LON TOKYO_GRADE TOKYO_WIND TOKYO_PRES TOKYO_R50_DIR TOKYO_R50_LONG TOKYO_R50_SHORT TOKYO_R30_DIR TOKYO_R30_LONG TOKYO_R30_SHORT TOKYO_LAND CMA_LAT CMA_LON CMA_CAT CMA_WIND CMA_PRES HKO_LAT HKO_LON HKO_CAT HKO_WIND HKO_PRES NEWDELHI_LAT NEWDELHI_LON NEWDELHI_GRADE NEWDELHI_WIND NEWDELHI_PRES NEWDELHI_CI NEWDELHI_DP NEWDELHI_POCI REUNION_LAT REUNION_LON REUNION_TYPE REUNION_WIND REUNION_PRES REUNION_TNUM REUNION_CI REUNION_RMW REUNION_R34_NE REUNION_R34_SE REUNION_R34_SW REUNION_R34_NW REUNION_R50_NE REUNION_R50_SE REUNION_R50_SW REUNION_R50_NW REUNION_R64_NE REUNION_R64_SE REUNION_R64_SW REUNION_R64_NW BOM_LAT BOM_LON BOM_TYPE BOM_WIND BOM_PRES BOM_TNUM BOM_CI BOM_RMW BOM_R34_NE BOM_R34_SE BOM_R34_SW BOM_R34_NW BOM_R50_NE BOM_R50_SE BOM_R50_SW BOM_R50_NW BOM_R64_NE BOM_R64_SE BOM_R64_SW BOM_R64_NW BOM_ROCI BOM_POCI BOM_EYE BOM_POS_METHOD BOM_PRES_METHOD NADI_LAT NADI_LON NADI_CAT NADI_WIND NADI_PRES WELLINGTON_LAT WELLINGTON_LON WELLINGTON_WIND WELLINGTON_PRES DS824_LAT DS824_LON DS824_STAGE DS824_WIND DS824_PRES TD9636_LAT TD9636_LON TD9636_STAGE TD9636_WIND TD9636_PRES TD9635_LAT TD9635_LON TD9635_WIND TD9635_PRES TD9635_ROCI NEUMANN_LAT NEUMANN_LON NEUMANN_CLASS NEUMANN_WIND NEUMANN_PRES MLC_LAT MLC_LON MLC_CLASS MLC_WIND MLC_PRES USA_GUST BOM_GUST BOM_GUST_PER REUNION_GUST REUNION_GUST_PER USA_SEAHGT USA_SEARAD_NE USA_SEARAD_SE USA_SEARAD_SW USA_SEARAD_NW STORM_SPEED STORM_DIR
1998022S15125 1998 4 SI WA TIFFANY 1998-01-22 10:00:00 NR -15.0000 124.500 25 1001 bom main 39 0 ______O_______ -1 -15.0000 124.500 20 25 1001 296 3 7 28 152
1998022S15125 1998 4 SI WA TIFFANY 1998-01-22 12:00:00 NR -15.8225 124.961 main 0 0 O_____P_______ jtwc_sh SH151998 -17.1000 125.600 15 -1 -15.1837 124.642 20 25 1001 255 14 153
1998022S15125 1998 4 SI WA TIFFANY 1998-01-22 15:00:00 NR -16.0727 125.056 main 0 0 P_____P_______ SH151998 -17.0026 125.390 15 -1 -15.4528 124.833 20 25 1001 194 4 165
1998022S15125 1998 4 SI WA TIFFANY 1998-01-22 18:00:00 NR -16.2174 125.067 main 0 0 O_____P_______ jtwc_sh SH151998 -16.9000 125.200 15 -1 -15.7054 124.968 20 25 1001 134 3 185
1998022S15125 1998 4 SI WA TIFFANY 1998-01-22 21:00:00 NR -16.3622 125.027 main 0 0 P_____P_______ SH151998 -16.7925 125.043 15 -1 -15.9320 125.012 20 25 1001 73 3 204
1998022S15125 1998 4 SI WA TIFFANY 1998-01-22 22:00:00 NR -16.3794 124.997 25 1002 bom main 0 0 P_____O_______ SH151998 -16.7587 124.995 15 -1 -16.0000 125.000 20 25 1002 53 3 7 2 268
1998022S15125 1998 4 SI WA TIFFANY 1998-01-23 00:00:00 TS -16.3656 124.926 main 0 0 O_____P_____O_ jtwc_sh SH151998 -16.7000 124.900 15 -1 -16.1225 124.935 20 25 1002 53 -16.0000 125.000 TC 25 1002 3 266
1998022S15125 1998 4 SI WA TIFFANY 1998-01-23 03:00:00 TS -16.3946 124.778 main 0 0 P_____P_____P_ SH151998 -16.6350 124.750 17 -1 -16.2653 124.765 20 25 1002 53 -16.1725 124.860 TC 25 1002 3 261
1998022S15125 1998 4 SI WA TIFFANY 1998-01-23 04:00:00 TS -16.3951 124.730 25 1002 bom main 10 10 P_____O_____P_ SH151998 -16.6200 124.700 18 -1 -16.3000 124.700 20 25 1002 53 3 7 -16.2222 124.810 TC 25 1002 3 262
1998022S15125 1998 4 SI WA TIFFANY 1998-01-23 06:00:00 TS -16.4146 124.625 main 10 0 O_____P_____O_ jtwc_sh SH151998 -16.6000 124.600 20 -1 -16.3437 124.575 20 25 1001 53 -16.3000 124.700 TC 25 1002 3 260
1998022S15125 1998 4 SI WA TIFFANY 1998-01-23 09:00:00 TS -16.4418 124.442 main 0 0 P_____P_____P_ SH151998 -16.5850 124.450 20 -1 -16.3829 124.369 20 25 1001 53 -16.3575 124.507 TC 25 1001 4 261
1998022S15125 1998 4 SI WA TIFFANY 1998-01-23 10:00:00 TS -16.4521 124.380 25 1001 bom main 10 10 P_____O_____P_ SH151998 -16.5867 124.400 20 -1 -16.4000 124.300 20 25 1001 53 3 7 -16.3696 124.439 TC 25 1001 4 255
1998022S15125 1998 4 SI WA TIFFANY 1998-01-23 12:00:00 TS -16.4881 124.257 main 10 0 O_____P_____O_ jtwc_sh SH151998 -16.6000 124.300 20 -1 -16.4642 124.172 20 25 1001 53 -16.4000 124.300 TC 25 1001 4 248
1998022S15125 1998 4 SI WA TIFFANY 1998-01-23 15:00:00 TS -16.5707 124.077 main 0 0 P_____P_____P_ SH151998 -16.6425 124.150 22 -1 -16.5697 123.972 20 25 1001 53 -16.5000 124.108 TC 25 1001 4 245
1998022S15125 1998 4 SI WA TIFFANY 1998-01-23 16:00:00 TS -16.5990 124.014 25 1001 bom main 0 0 P_____O_____P_ SH151998 -16.6612 124.100 23 -1 -16.6000 123.900 20 25 1001 53 3 7 -16.5358 124.041 TC 25 1001 4 248
1998022S15125 1998 4 SI WA TIFFANY 1998-01-23 18:00:00 TS -16.6471 123.879 main 0 0 O_____P_____O_ jtwc_sh SH151998 -16.7000 124.000 25 -1 -16.6413 123.736 20 25 1001 53 -16.6000 123.900 TC 25 1001 4 253
1998022S15125 1998 4 SI WA TIFFANY 1998-01-23 21:00:00 TS -16.6978 123.665 main 0 0 P_____P_____P_ SH151998 -16.7500 123.865 25 -1 -16.6860 123.480 20 25 1001 53 -16.6575 123.650 TC 25 1001 4 257
1998022S15125 1998 4 SI WA TIFFANY 1998-01-23 22:00:00 TS -16.7129 123.593 25 1001 bom main 0 0 P_____O_____P_ SH151998 -16.7666 123.816 25 -1 -16.7000 123.400 20 25 1001 53 3 7 -16.6721 123.564 TC 25 1001 4 257
1998022S15125 1998 4 SI WA TIFFANY 1998-01-24 00:00:00 TS -16.7444 123.453 main 0 0 O_____P_____O_ jtwc_sh SH151998 -16.8000 123.700 25 -1 -16.7333 123.259 20 25 1001 53 -16.7000 123.400 TC 25 1001 4 256
1998022S15125 1998 4 SI WA TIFFANY 1998-01-24 03:00:00 TS -16.7944 123.243 main 10 10 P_____P_____P_ SH151998 -16.8500 123.472 25 -1 -16.7833 123.064 20 25 1001 53 -16.7500 123.192 TC 25 1001 4 256
1998022S15125 1998 4 SI WA TIFFANY 1998-01-24 04:00:00 TS -16.8111 123.171 25 1001 bom main 10 0 P_____O_____P_ SH151998 -16.8666 123.385 25 -1 -16.8000 123.000 20 25 1001 53 3 7 -16.7666 123.128 TC 25 1001 4 257
1998022S15125 1998 4 SI WA TIFFANY 1998-01-24 06:00:00 TS -16.8408 123.026 main 0 0 O_____P_____O_ jtwc_sh SH151998 -16.9000 123.200 25 -1 -16.8224 122.877 20 25 1000 61 -16.8000 123.000 TC 25 1001 4 258
1998022S15125 1998 4 SI WA TIFFANY 1998-01-24 09:00:00 TS -16.8856 122.800 main 0 0 P_____P_____P_ SH151998 -16.9500 122.907 27 -1 -16.8719 122.678 20 25 1000 75 -16.8349 122.815 TC 27 1000 5 258
1998022S15125 1998 4 SI WA TIFFANY 1998-01-24 10:00:00 TS -16.9058 122.718 25 1000 bom main 0 0 P_____O_____P_ SH151998 -16.9667 122.805 28 -1 -16.9000 122.600 20 25 1000 80 3 7 -16.8508 122.749 TC 28 1000 5 251
1998022S15125 1998 4 SI WA TIFFANY 1998-01-24 12:00:00 TS -16.9686 122.542 main 0 0 O_____P_____O_ jtwc_sh SH151998 -17.0000 122.600 30 -1 -17.0059 122.427 20 28 998 80 -16.9000 122.600 TC 30 1000 6 247
1998022S15125 1998 4 SI WA TIFFANY 1998-01-24 15:00:00 TS -17.0941 122.251 main 0 0 P_____P_____P_ SH151998 -17.0499 122.307 32 -1 -17.1675 122.117 20 33 995 80 -17.0649 122.330 TC 35 997 6 247
1998022S15125 1998 4 SI WA TIFFANY 1998-01-24 16:00:00 TS -17.1291 122.145 35 995 bom main 21 21 P_____O_____P_ SH151998 -17.0666 122.208 33 -1 -17.2000 122.000 30 35 995 3.00000 80 3 7 -17.1207 122.227 TC 36 996 7 259
1998022S15125 1998 4 SI WA TIFFANY 1998-01-24 18:00:00 TS -17.1571 121.913 main 33 33 O_____P_____O_ jtwc_sh SH151998 -17.1000 122.000 35 0 -17.1712 121.738 30 39 991 88 -17.2000 122.000 TC 40 995 7 270
1998022S15125 1998 4 SI WA TIFFANY 1998-01-24 21:00:00 TS -17.1279 121.528 main 77 77 P_____P_____P_ SH151998 -17.1425 121.657 42 0 -17.0986 121.327 30 47 986 102 -17.1426 121.600 TC 47 990 7 274
1998022S15125 1998 4 SI WA TIFFANY 1998-01-24 22:00:00 TS -17.1248 121.400 50 985 bom main 87 87 P_____O_____P_ SH151998 -17.1587 121.539 45 0 -17.1000 121.200 30 50 985 3.50000 107 3 5 -17.1156 121.461 TC 50 988 7 263
1998022S15125 1998 4 SI WA TIFFANY 1998-01-25 00:00:00 TS -17.1682 121.163 main 105 105 O_____P_____O_ jtwc_sh SH151998 -17.2000 121.300 50 0 -17.2046 120.990 30 51 983 107 -17.1000 121.200 TC 55 985 7 249
1998022S15125 1998 4 SI WA TIFFANY 1998-01-25 03:00:00 TS -17.3313 120.848 main 141 139 P_____P_____P_ SH151998 -17.2849 120.950 50 0 -17.4316 120.701 30 54 980 107 -17.2773 120.893 TC 57 982 7 241
1998022S15125 1998 4 SI WA TIFFANY 1998-01-25 04:00:00 TS -17.3917 120.743 55 980 bom main 150 150 P_____O_____P_ SH151998 -17.3199 120.833 50 0 -17.5000 120.600 30 55 980 4.00000 107 4 5 -17.3552 120.797 TC 58 981 7 243
1998022S15125 1998 4 SI WA TIFFANY 1998-01-25 06:00:00 TS -17.4942 120.519 main 170 170 O_____P_____O_ jtwc_sh SH151998 -17.4000 120.600 50 0 -17.5825 120.358 30 56 978 107 -17.5000 120.600 TC 60 980 7 248
1998022S15125 1998 4 SI WA TIFFANY 1998-01-25 09:00:00 TS -17.6123 120.157 main 194 194 P_____P_____P_ SH151998 -17.5500 120.235 50 0 -17.6720 120.002 30 59 975 107 -17.6151 120.235 TC 65 977 7 251
1998022S15125 1998 4 SI WA TIFFANY 1998-01-25 10:00:00 TS -17.6489 120.044 60 975 bom main 211 205 P_____O_____P_ SH151998 -17.6025 120.118 50 0 -17.7000 119.900 30 60 975 4.00000 107 4 5 -17.6443 120.115 TC 66 976 6 250
1998022S15125 1998 4 SI WA TIFFANY 1998-01-25 12:00:00 TS -17.7204 119.848 main 224 219 O_____P_____O_ jtwc_sh SH151998 -17.7000 119.900 50 0 -17.7611 119.743 30 61 973 107 -17.7000 119.900 TC 70 975 5 247
1998022S15125 1998 4 SI WA TIFFANY 1998-01-25 15:00:00 TS -17.8202 119.621 main 239 239 P_____P_____P_ SH151998 -17.8074 119.627 52 0 -17.8609 119.559 30 64 970 107 -17.7924 119.677 TC 72 972 5 244
1998022S15125 1998 4 SI WA TIFFANY 1998-01-25 16:00:00 TS -17.8547 119.555 65 970 bom main 232 232 P_____O_____P_ SH151998 -17.8387 119.548 53 0 -17.9000 119.500 40 65 970 4.50000 107 6 5 -17.8253 119.617 TC 73 971 4 239
1998022S15125 1998 4 SI WA TIFFANY 1998-01-25 18:00:00 TS -17.9343 119.420 main 238 221 O_____P_____O_ jtwc_sh SH151998 -17.9000 119.400 55 0 -18.0030 119.361 40 68 968 107 -17.9000 119.500 TC 75 970 5 237
1998022S15125 1998 4 SI WA TIFFANY 1998-01-25 21:00:00 TS -18.0696 119.215 main 221 221 P_____P_____P_ SH151998 -17.9925 119.192 60 0 -18.1588 119.161 40 73 965 107 -18.0575 119.293 TC 77 967 5 235
1998022S15125 1998 4 SI WA TIFFANY 1998-01-25 22:00:00 TS -18.1119 119.151 75 965 bom main 221 212 P_____O_____P_ SH151998 -18.0254 119.128 61 0 -18.2000 119.100 40 75 965 4.50000 107 6 5 -18.1104 119.225 TC 78 966 4 237
1998022S15125 1998 4 SI WA TIFFANY 1998-01-26 00:00:00 TS -18.1830 119.031 main 212 202 O_____P_____O_ jtwc_sh SH151998 -18.1000 119.000 65 1 -18.2491 118.992 40 76 963 115 -18.2000 119.100 TC 80 965 4 240
1998022S15125 1998 4 SI WA TIFFANY 1998-01-26 03:00:00 TS -18.2703 118.866 main 202 202 P_____P_____P_ SH151998 -18.2575 118.808 72 1 -18.2886 118.847 40 79 960 129 -18.2650 118.942 TC 82 962 4 242
1998022S15125 1998 4 SI WA TIFFANY 1998-01-26 04:00:00 TS -18.2959 118.812 80 960 bom main 203 203 P_____O_____P_ SH151998 -18.3103 118.741 75 1 -18.3000 118.800 40 80 960 5.00000 134 4 6 5 -18.2775 118.895 TC 83 961 3 244
1998022S15125 1998 4 SI WA TIFFANY 1998-01-26 06:00:00 TS -18.3469 118.702 main 205 194 O_____P_____O_ jtwc_sh SH151998 -18.4000 118.600 80 1 -18.3407 118.707 40 81 958 134 -18.3000 118.800 TC 85 960 4 248
1998022S15125 1998 4 SI WA TIFFANY 1998-01-26 09:00:00 TS -18.4070 118.524 main 200 200 P_____P_____P_ SH151998 -18.4725 118.350 87 2 -18.3911 118.558 40 84 955 134 -18.3574 118.665 TC 90 957 4 252
1998022S15125 1998 4 SI WA TIFFANY 1998-01-26 10:00:00 TS -18.4200 118.460 85 955 bom main 200 200 P_____O_____P_ SH151998 -18.4855 118.264 90 2 -18.4000 118.500 40 85 955 5.00000 134 6 5 -18.3745 118.616 TC 91 956 4 262
1998022S15125 1998 4 SI WA TIFFANY 1998-01-26 12:00:00 TS -18.4339 118.326 main 207 207 O_____P_____O_ jtwc_sh SH151998 -18.5000 118.100 95 2 -18.4018 118.377 40 88 951 134 -18.4000 118.500 TC 95 955 4 266
1998022S15125 1998 4 SI WA TIFFANY 1998-01-26 13:00:00 TS -18.4328 118.251 90 950 bom main 207 207 P_____O_____P_ SH151998 -18.4978 118.028 98 3 -18.4000 118.300 40 90 950 5.50000 134 6 5 -18.4005 118.425 TC 97 952 5 273
1998022S15125 1998 4 SI WA TIFFANY 1998-01-26 15:00:00 TS -18.4232 118.082 main 217 217 P_____P_____P_ SH151998 -18.4850 117.892 105 3 -18.3921 118.098 40 93 943 134 -18.3925 118.257 TC 102 947 5 272
1998022S15125 1998 4 SI WA TIFFANY 1998-01-26 16:00:00 TS -18.4238 117.999 95 940 bom main 222 222 P_____O_____P_ SH151998 -18.4817 117.828 108 3 -18.4000 118.000 40 95 940 5.50000 134 8 6 5 -18.3897 118.170 TC 105 944 4 262
1998022S15125 1998 4 SI WA TIFFANY 1998-01-26 18:00:00 TS -18.4537 117.854 main 213 213 O_____P_____O_ jtwc_sh SH151998 -18.5000 117.700 115 4 -18.4612 117.861 40 98 940 134 -18.4000 118.000 TC 110 940 4 253
1998022S15125 1998 4 SI WA TIFFANY 1998-01-26 19:00:00 TS -18.4849 117.790 100 940 bom main 214 205 P_____O_____P_ SH151998 -18.5355 117.639 115 4 -18.5000 117.800 40 100 940 6.00000 134 6 5 -18.4192 117.933 TC 108 941 4 239
1998022S15125 1998 4 SI WA TIFFANY 1998-01-26 21:00:00 TS -18.5597 117.666 main 205 205 P_____P_____P_ SH151998 -18.6349 117.515 117 4 -18.5666 117.675 40 100 946 134 -18.4774 117.807 TC 105 945 4 237
1998022S15125 1998 4 SI WA TIFFANY 1998-01-26 22:00:00 TS -18.6020 117.598 100 950 bom main 208 200 P_____O_____P_ SH151998 -18.6915 117.449 118 4 -18.6000 117.600 40 100 950 6.00000 134 8 6 5 -18.5145 117.744 TC 103 946 5 240
1998022S15125 1998 4 SI WA TIFFANY 1998-01-27 00:00:00 TS -18.6863 117.435 main 203 203 O_____P_____O_ jtwc_sh SH151998 -18.8000 117.300 120 4 -18.6588 117.405 40 100 953 134 -18.6000 117.600 TC 100 950 5 242
1998022S15125 1998 4 SI WA TIFFANY 1998-01-27 01:00:00 TS -18.7278 117.345 100 955 bom main 207 197 P_____O_____P_ SH151998 -18.8390 117.219 120 4 -18.7000 117.300 40 100 955 6.00000 134 6 4 -18.6443 117.517 TC 99 950 6 242
1998022S15125 1998 4 SI WA TIFFANY 1998-01-27 03:00:00 TS -18.8259 117.158 main 202 192 P_____P_____P_ SH151998 -18.9074 117.037 120 4 -18.8279 117.108 40 100 955 134 -18.7424 117.330 TC 97 952 6 241
1998022S15125 1998 4 SI WA TIFFANY 1998-01-27 04:00:00 TS -18.8777 117.054 100 955 bom main 192 178 P_____O_____P_ SH151998 -18.9387 116.934 120 4 -18.9000 117.000 40 100 955 6.00000 134 8 6 5 -18.7945 117.227 TC 96 953 7 245
1998022S15125 1998 4 SI WA TIFFANY 1998-01-27 06:00:00 TS -18.9804 116.813 main 178 178 O_____P_____O_ jtwc_sh SH151998 -19.0000 116.700 120 4 -19.0412 116.739 40 96 948 134 -18.9000 117.000 TC 95 955 8 246
1998022S15125 1998 4 SI WA TIFFANY 1998-01-27 07:00:00 TS -19.0330 116.684 95 945 bom main 178 168 P_____O_____P_ SH151998 -19.0386 116.567 120 4 -19.1000 116.600 40 95 945 5.50000 134 6 5 -18.9605 116.883 TC 96 953 8 249
1998022S15125 1998 4 SI WA TIFFANY 1998-01-27 09:00:00 TS -19.1250 116.415 main 170 162 P_____P_____P_ SH151998 -19.1150 116.273 120 4 -19.1800 116.341 40 95 945 134 -19.0799 116.630 TC 100 950 8 252
1998022S15125 1998 4 SI WA TIFFANY 1998-01-27 10:00:00 TS -19.1602 116.270 95 945 bom main 162 162 P_____O_____P_ SH151998 -19.1492 116.116 120 4 -19.2000 116.200 40 95 945 5.50000 134 9 6 5 -19.1315 116.494 TC 101 948 9 260
1998022S15125 1998 4 SI WA TIFFANY 1998-01-27 12:00:00 TS -19.2044 115.957 main 172 172 O_____P_____O_ jtwc_sh SH151998 -19.2000 115.800 120 4 -19.2133 115.872 40 91 948 134 -19.2000 116.200 TC 105 945 9 265
1998022S15125 1998 4 SI WA TIFFANY 1998-01-27 13:00:00 TS -19.2023 115.798 90 950 bom main 182 182 P_____O_____P_ SH151998 -19.2061 115.650 119 4 -19.2000 115.700 40 90 950 5.50000 134 9 6 5 -19.2009 116.045 TC 103 946 9 275
1998022S15125 1998 4 SI WA TIFFANY 1998-01-27 15:00:00 TS -19.1625 115.490 main 200 200 P_____P_____P_ SH151998 -19.1999 115.350 117 4 -19.1227 115.406 40 86 953 134 -19.1650 115.715 TC 100 950 9 277
1998022S15125 1998 4 SI WA TIFFANY 1998-01-27 16:00:00 TS -19.1447 115.315 85 955 bom main 222 222 P_____O_____P_ SH151998 -19.1950 115.200 116 4 -19.1000 115.200 40 85 955 5.00000 134 9 6 5 -19.1392 115.544 TC 98 951 12 271
1998022S15125 1998 4 SI WA TIFFANY 1998-01-27 18:00:00 TS -19.1547 114.861 main 233 233 O_____P_____O_ jtwc_sh SH151998 -19.2000 114.900 115 4 -19.1641 114.482 40 81 955 134 -19.1000 115.200 TC 95 955 12 267
1998022S15125 1998 4 SI WA TIFFANY 1998-01-27 19:00:00 TS -19.1757 114.661 80 955 bom main 246 246 P_____O_____P_ SH151998 -19.2245 114.750 114 4 -19.2000 114.200 40 80 955 5.00000 134 8 6 5 -19.1025 115.033 TC 95 955 8 263
1998022S15125 1998 4 SI WA TIFFANY 1998-01-27 21:00:00 TS -19.2068 114.438 main 263 263 P_____P_____P_ SH151998 -19.2924 114.450 112 3 -19.2007 114.165 40 80 955 134 -19.1274 114.700 TC 95 955 6 260
1998022S15125 1998 4 SI WA TIFFANY 1998-01-27 22:00:00 TS -19.2260 114.344 80 955 bom main 270 268 P_____O_____P_ SH151998 -19.3303 114.300 111 3 -19.2000 114.200 40 80 955 5.00000 134 9 6 5 -19.1478 114.533 TC 95 955 7 258
1998022S15125 1998 4 SI WA TIFFANY 1998-01-28 00:00:00 TS -19.2818 114.058 main 275 275 O_____P_____O_ jtwc_sh SH151998 -19.4000 114.000 110 3 -19.2453 113.975 40 80 955 134 -19.2000 114.200 TC 95 955 9 259
1998022S15125 1998 4 SI WA TIFFANY 1998-01-28 03:00:00 TS -19.3723 113.556 main 282 282 P_____P_____P_ SH151998 -19.4648 113.565 112 3 -19.3597 113.402 40 80 955 134 -19.2924 113.700 TC 95 955 10 259
1998022S15125 1998 4 SI WA TIFFANY 1998-01-28 04:00:00 TS -19.4025 113.383 80 955 bom main 286 284 P_____O_____P_ SH151998 -19.4798 113.416 113 4 -19.4000 113.200 40 80 955 5.00000 134 10 4 5 -19.3278 113.533 TC 95 955 10 260
1998022S15125 1998 4 SI WA TIFFANY 1998-01-28 06:00:00 TS -19.4591 113.056 main 284 284 O_____P_____O_ jtwc_sh SH151998 -19.5000 113.100 115 4 -19.4774 112.867 40 83 956 134 -19.4000 113.200 TC 95 955 10 261
1998022S15125 1998 4 SI WA TIFFANY 1998-01-28 09:00:00 TS -19.5334 112.544 main 310 310 P_____P_____P_ SH151998 -19.5075 112.565 115 4 -19.5780 112.367 40 88 959 134 -19.5149 112.700 TC 90 957 10 262
1998022S15125 1998 4 SI WA TIFFANY 1998-01-28 10:00:00 TS -19.5515 112.370 90 960 bom main 306 306 P_____O_____P_ SH151998 -19.5054 112.377 115 4 -19.6000 112.200 40 90 960 5.50000 134 10 4 5 -19.5490 112.533 TC 88 958 10 266
1998022S15125 1998 4 SI WA TIFFANY 1998-01-28 12:00:00 TS -19.5719 112.019 main 330 330 O_____P_____O_ jtwc_sh SH151998 -19.5000 112.000 115 4 -19.6158 111.856 40 86 963 125 -19.6000 112.200 TC 85 960 10 268
1998022S15125 1998 4 SI WA TIFFANY 1998-01-28 15:00:00 TS -19.5734 111.492 main 365 365 P_____P_____P_ SH151998 -19.5000 111.435 110 3 -19.6052 111.355 40 81 968 111 -19.6150 111.685 TC 80 965 10 270
1998022S15125 1998 4 SI WA TIFFANY 1998-01-28 16:00:00 TS -19.5703 111.323 80 970 bom main 380 380 P_____O_____P_ SH151998 -19.5000 111.251 108 3 -19.6000 111.200 40 80 970 5.00000 107 3 5 -19.6109 111.517 TC 78 966 9 271
1998022S15125 1998 4 SI WA TIFFANY 1998-01-28 18:00:00 TS -19.5666 111.004 main 404 404 O_____P_____O_ jtwc_sh SH151998 -19.5000 110.900 105 3 -19.5999 110.912 40 71 974 107 -19.6000 111.200 TC 75 970 9 270
1998022S15125 1998 4 SI WA TIFFANY 1998-01-28 21:00:00 TS -19.5641 110.568 main 437 437 P_____P_____P_ SH151998 -19.4925 110.405 100 3 -19.5999 110.522 40 59 982 107 -19.5999 110.778 TC 65 977 8 270
1998022S15125 1998 4 SI WA TIFFANY 1998-01-28 22:00:00 TS -19.5640 110.435 55 985 bom main 454 454 P_____O_____P_ SH151998 -19.4921 110.258 98 3 -19.6000 110.400 30 55 985 4.00000 107 3 5 -19.5999 110.648 TC 61 980 7 270
1998022S15125 1998 4 SI WA TIFFANY 1998-01-29 00:00:00 TS -19.5666 110.184 main 471 471 O_____P_____O_ jtwc_sh SH151998 -19.5000 110.000 95 2 -19.5999 110.153 30 53 985 107 -19.6000 110.400 TC 55 985 7 268
1998022S15125 1998 4 SI WA TIFFANY 1998-01-29 03:00:00 TS -19.5807 109.852 main 497 497 P_____P_____P_ SH151998 -19.5423 109.713 87 2 -19.6000 109.808 30 50 985 107 -19.5999 110.035 TC 55 985 6 267
1998022S15125 1998 4 SI WA TIFFANY 1998-01-29 04:00:00 TS -19.5870 109.752 50 985 bom main 506 506 P_____O_____P_ SH151998 -19.5611 109.637 84 2 -19.6000 109.700 30 50 985 3.50000 107 3 5 -19.5999 109.920 TC 55 985 5 266
1998022S15125 1998 4 SI WA TIFFANY 1998-01-29 06:00:00 TS -19.6000 109.562 main 524 524 O_____P_____O_ jtwc_sh SH151998 -19.6000 109.500 80 1 -19.5999 109.487 30 50 985 107 -19.6000 109.700 TC 55 985 5 265
1998022S15125 1998 4 SI WA TIFFANY 1998-01-29 09:00:00 TS -19.6216 109.290 main 552 552 P_____P_____P_ SH151998 -19.6650 109.293 72 1 -19.6000 109.192 30 50 985 107 -19.5999 109.385 TC 55 985 5 265
1998022S15125 1998 4 SI WA TIFFANY 1998-01-29 10:00:00 TS -19.6275 109.205 50 985 bom main 561 561 P_____O_____P_ SH151998 -19.6824 109.228 69 1 -19.6000 109.100 30 50 985 3.50000 107 3 5 -19.6000 109.287 TC 55 985 5 267
1998022S15125 1998 4 SI WA TIFFANY 1998-01-29 12:00:00 TS -19.6351 109.040 main 579 579 O_____P_____O_ jtwc_sh SH151998 -19.7000 109.100 65 1 -19.6054 108.920 30 46 986 107 -19.6000 109.100 TC 55 985 5 270
1998022S15125 1998 4 SI WA TIFFANY 1998-01-29 15:00:00 TS -19.6260 108.806 main 598 598 P_____P_____P_ SH151998 -19.6650 108.907 57 0 -19.6057 108.675 30 41 989 107 -19.6075 108.835 TC 50 987 4 274
1998022S15125 1998 4 SI WA TIFFANY 1998-01-29 16:00:00 TS -19.6173 108.732 40 990 bom main 608 608 P_____O_____P_ SH151998 -19.6442 108.841 54 0 -19.6000 108.600 30 40 990 3.00000 107 3 5 -19.6079 108.753 TC 48 988 4 280
1998022S15125 1998 4 SI WA TIFFANY 1998-01-29 18:00:00 TS -19.5897 108.588 main 617 617 O_____P_____O_ jtwc_sh SH151998 -19.6000 108.700 50 0 -19.5691 108.464 30 38 991 107 -19.6000 108.600 TC 45 990 4 283
1998022S15125 1998 4 SI WA TIFFANY 1998-01-29 21:00:00 TS -19.5378 108.378 main 641 641 P_____P_____P_ SH151998 -19.5500 108.465 45 0 -19.5135 108.270 30 35 994 107 -19.5499 108.400 TC 42 992 4 284
1998022S15125 1998 4 SI WA TIFFANY 1998-01-29 22:00:00 TS -19.5214 108.305 35 995 bom main 649 649 P_____O_____P_ SH151998 -19.5333 108.380 43 0 -19.5000 108.200 30 35 995 3.00000 107 3 5 -19.5308 108.336 TC 41 993 4 281
1998022S15125 1998 4 SI WA TIFFANY 1998-01-30 00:00:00 TS -19.4956 108.147 main 667 667 O_____P_____O_ jtwc_sh SH151998 -19.5000 108.200 40 0 -19.4867 108.041 30 33 995 107 -19.5000 108.200 TC 40 995 5 277
1998022S15125 1998 4 SI WA TIFFANY 1998-01-30 03:00:00 TS -19.4730 107.884 main 685 685 P_____P_____P_ SH151998 -19.4425 107.907 37 0 -19.4917 107.786 30 30 996 107 -19.4850 107.957 TC 37 996 5 274
1998022S15125 1998 4 SI WA TIFFANY 1998-01-30 04:00:00 TS -19.4707 107.793 30 997 bom main 694 694 P_____O_____P_ SH151998 -19.4254 107.805 36 0 -19.5000 107.700 20 30 997 2.50000 107 3 5 -19.4867 107.872 TC 36 996 5 269
1998022S15125 1998 4 SI WA TIFFANY 1998-01-30 06:00:00 TS -19.4770 107.609 main 712 712 O_____P_____O_ jtwc_sh SH151998 -19.4000 107.600 35 0 -19.5309 107.528 20 28 997 107 -19.5000 107.700 TC 35 997 5 265
1998022S15125 1998 4 SI WA TIFFANY 1998-01-30 09:00:00 TS -19.5096 107.338 main 739 739 P_____P_____P_ SH151998 -19.3925 107.293 35 0 -19.5864 107.278 20 25 999 107 -19.5500 107.443 TC 32 998 5 263
1998022S15125 1998 4 SI WA TIFFANY 1998-01-30 10:00:00 TS -19.5212 107.250 25 1000 bom main 739 739 P_____O_____P_ SH151998 -19.3946 107.192 35 0 -19.6000 107.200 20 25 1000 2.00000 107 3 5 -19.5691 107.359 TC 31 999 5 264
1998022S15125 1998 4 SI WA TIFFANY 1998-01-30 12:00:00 TS -19.5360 107.086 main 758 758 O_____P_____O_ jtwc_sh SH151998 -19.4000 107.000 35 0 -19.6079 107.059 20 25 1000 107 -19.6000 107.200 TC 30 1000 4 268
1998022S15125 1998 4 SI WA TIFFANY 1998-01-30 15:00:00 TS -19.5367 106.859 main 776 776 P_____P_____P_ SH151998 -19.4000 106.720 32 -1 -19.6026 106.864 20 25 1000 107 -19.6075 106.992 TC 30 1000 4 270
1998022S15125 1998 4 SI WA TIFFANY 1998-01-30 16:00:00 TS -19.5351 106.788 25 1000 bom main 785 785 P_____O_____P_ SH151998 -19.4000 106.638 31 -1 -19.6000 106.800 20 25 1000 2.00000 107 3 5 -19.6054 106.928 TC 30 1000 4 270
1998022S15125 1998 4 SI WA TIFFANY 1998-01-30 18:00:00 TS -19.5351 106.657 main 795 795 O_____P_____O_ jtwc_sh SH151998 -19.4000 106.500 30 -1 -19.6054 106.672 20 25 1000 107 -19.6000 106.800 TC 30 1000 3 269
1998022S15125 1998 4 SI WA TIFFANY 1998-01-30 21:00:00 TS -19.5377 106.486 main 813 813 P_____P_____P_ SH151998 -19.3999 106.378 30 -1 -19.6057 106.472 20 25 1001 107 -19.6075 106.608 TC 27 1001 3 270
1998022S15125 1998 4 SI WA TIFFANY 1998-01-30 22:00:00 TS -19.5359 106.431 25 1002 bom main 823 823 P_____O_____P_ SH151998 -19.4000 106.350 30 -1 -19.6000 106.400 20 25 1002 1.50000 107 3 5 -19.6079 106.541 TC 26 1001 3 275
1998022S15125 1998 4 SI WA TIFFANY 1998-01-31 00:00:00 TS -19.5249 106.312 main 832 832 O_____P_____O_ jtwc_sh SH151998 -19.4000 106.300 30 -1 -19.5746 106.236 20 25 1002 107 -19.6000 106.400 TC 25 1002 4 278
1998022S15125 1998 4 SI WA TIFFANY 1998-01-31 03:00:00 TS -19.4923 106.110 main 851 851 P_____P_____P_ SH151998 -19.4000 106.200 27 -1 -19.5193 105.980 20 25 1002 107 -19.5575 106.150 TC 25 1002 4 280
1998022S15125 1998 4 SI WA TIFFANY 1998-01-31 04:00:00 TS -19.4796 106.044 25 1002 bom main 861 861 P_____O_____P_ SH151998 -19.4000 106.167 26 -1 -19.5000 105.900 20 25 1002 1.50000 107 3 5 -19.5388 106.064 TC 25 1002 4 281
1998022S15125 1998 4 SI WA TIFFANY 1998-01-31 06:00:00 TS -19.4574 105.918 main 870 870 O_____P_____O_ jtwc_sh SH151998 -19.4000 106.100 25 -1 -19.4721 105.753 20 25 1002 107 -19.5000 105.900 TC 25 1002 3 279
1998022S15125 1998 4 SI WA TIFFANY 1998-01-31 09:00:00 TS -19.4341 105.753 main 884 884 P_____P_____P_ SH151998 -19.4225 106.015 25 -1 -19.4224 105.558 20 25 1002 107 -19.4575 105.685 TC 25 1002 3 280
1998022S15125 1998 4 SI WA TIFFANY 1998-01-31 10:00:00 TS -19.4216 105.701 25 1002 bom main 894 894 P_____O_____P_ SH151998 -19.4237 105.983 25 -1 -19.4000 105.500 20 25 1002 1.50000 107 3 5 -19.4412 105.620 TC 25 1002 3 290
1998022S15125 1998 4 SI WA TIFFANY 1998-01-31 12:00:00 TS -19.3804 105.597 main 903 903 O_____P_____O_ jtwc_sh SH151998 -19.4000 105.900 25 -1 -19.3412 105.392 20 25 1002 107 -19.4000 105.500 TC 25 1002 3 301
1998022S15125 1998 4 SI WA TIFFANY 1998-01-31 15:00:00 TS -19.2720 105.437 main 927 927 P_____P_____P_ SH151998 -19.2725 105.722 25 -1 -19.2359 105.247 20 25 1002 107 -19.3075 105.343 TC 25 1002 4 307
1998022S15125 1998 4 SI WA TIFFANY 1998-01-31 16:00:00 TS -19.2295 105.382 25 1002 bom main 932 932 P_____O_____P_ SH151998 -19.2163 105.652 25 -1 -19.2000 105.200 20 25 1002 1.50000 107 3 5 -19.2721 105.295 TC 25 1002 4 308
1998022S15125 1998 4 SI WA TIFFANY 1998-01-31 18:00:00 TS -19.1463 105.267 main 946 946 O_____P_____O_ jtwc_sh SH151998 -19.1000 105.500 25 -1 -19.1388 105.100 20 23 1002 107 -19.2000 105.200 TC 25 1002 4 304
1998022S15125 1998 4 SI WA TIFFANY 1998-01-31 21:00:00 TS -19.0397 105.083 main 970 970 P_____P_____P_ SH151998 -18.9725 105.250 25 -1 -19.0390 104.950 20 20 1003 107 -19.1075 105.050 TC 22 1003 4 302
1998022S15125 1998 4 SI WA TIFFANY 1998-01-31 22:00:00 TS -18.9994 105.021 20 1004 bom main 980 980 P_____O_____P_ SH151998 -18.9237 105.164 25 -1 -19.0000 104.900 20 20 1004 1.00000 107 3 5 -19.0746 105.000 TC 21 1003 4 309
1998022S15125 1998 4 SI WA TIFFANY 1998-02-01 00:00:00 TS -18.8990 104.900 main 994 994 O_____P_____O_ jtwc_sh SH151998 -18.8000 105.000 25 -1 -18.8970 104.800 20 20 1004 107 -19.0000 104.900 TC 20 1004 5 317
1998022S15125 1998 4 SI WA TIFFANY 1998-02-01 03:00:00 TS -18.7020 104.731 main 1023 1023 P_____P_____P_ SH151998 -18.5225 104.793 22 -1 -18.7412 104.650 20 20 1004 107 -18.8425 104.750 TC 20 1004 5 321
1998022S15125 1998 4 SI WA TIFFANY 1998-02-01 04:00:00 TS -18.6353 104.676 20 1004 bom main 1028 1028 P_____O_____P_ SH151998 -18.4163 104.728 21 -1 -18.7000 104.600 20 20 1004 1.00000 107 3 5 -18.7896 104.700 TC 20 1004 5 321
1998022S15125 1998 4 SI WA TIFFANY 1998-02-01 06:00:00 TS -18.5181 104.575 main 1042 1042 O_____P_____O_ jtwc_sh SH151998 -18.2000 104.600 20 -1 -18.6544 104.524 20 20 1004 107 -18.7000 104.600 TC 20 1004 4 312
1998022S15125 1998 4 SI WA TIFFANY 1998-02-01 09:00:00 TS -18.4021 104.406 main 1066 1066 P_____P_____P_ SH151998 -17.8926 104.402 22 -1 -18.6152 104.375 20 20 1004 107 -18.6275 104.450 TC 20 1004 4 297
1998022S15125 1998 4 SI WA TIFFANY 1998-02-01 10:00:00 TS -18.4024 104.334 20 1004 bom main 1075 1075 P_____O_____P_ SH151998 -17.7941 104.335 23 -1 -18.6000 104.300 20 20 1004 1.00000 107 3 5 -18.6156 104.400 TC 20 1004 5 273
1998022S15125 1998 4 SI WA TIFFANY 1998-02-01 12:00:00 TS -18.3858 104.120 main 1094 1094 O_____P_____O_ jtwc_sh SH151998 -17.6000 104.200 25 -1 -18.5287 104.055 20 -18.6000 104.300 TC 20 1004 9 271
1998022S15125 1998 4 SI WA TIFFANY 1998-02-01 15:00:00 NR -18.3850 103.542 main 1151 1151 ______P_______ SH151998 -1 -18.3850 103.542 20 TC 12 279
1998022S15125 1998 4 SI WA TIFFANY 1998-02-01 18:00:00 NR -18.2139 102.909 main 1218 1218 ______P_______ -1 -18.2139 102.909 20 13 286
1998022S15125 1998 4 SI WA TIFFANY 1998-02-01 21:00:00 NR -18.0348 102.215 main 1271 1271 ______P_______ -1 -18.0348 102.215 20 14 285
1998022S15125 1998 4 SI WA TIFFANY 1998-02-02 00:00:00 NR -17.8678 101.522 main 1290 1284 ______P_______ -1 -17.8678 101.522 20 13 283
1998022S15125 1998 4 SI WA TIFFANY 1998-02-02 03:00:00 NR -17.7337 100.888 main 1298 1298 ______P_______ -1 -17.7337 100.888 20 12 282
1998022S15125 1998 4 SI WA TIFFANY 1998-02-02 04:00:00 NR -17.7000 100.700 20 1006 bom main 1308 1308 ______O_______ -1 -17.7000 100.700 20 20 1006 1.00000 107 3 5 10 279
1998022S15125 1998 4 SI WA TIFFANY 1998-02-02 06:00:00 NR -17.6515 100.366 main 1324 1319 ______P_______ -1 -17.6515 100.366 20 20 1006 107 9 277
1998022S15125 1998 4 SI WA TIFFANY 1998-02-02 09:00:00 NR -17.6101 99.9352 main 1339 1339 ______P_______ -1 -17.6101 99.9352 20 20 1006 107 8 275
1998022S15125 1998 4 SI WA TIFFANY 1998-02-02 10:00:00 NR -17.6000 99.8000 20 1006 bom main 1343 ______O_______ -1 -17.6000 99.8000 20 20 1006 1.00000 107 3 5 8 274

IBTrACS Databaseについて

本データベースは、米国NOAAが公開する1842年以降の世界の熱帯低気圧のベストトラックデータアーカイブInternational Best Track Archive for Climate Stewardship (IBTrACS)を、ウェブで閲覧しやすい形式に変換したものです。

最終更新日:2021-10-08